Pagina principale
METAR-TAF:

METAR-TAF

Aeroporti :

Ermelo, Sudafrica

latitudine: 26-29-44S, longitudine: 29-58-47E, altezza: 1737 m

Osservazione

Il bollettino è stato emesso 11 ore e 34 minuti fa, alle 08:47 UTC
Vento 11 kt da est
Temperature 23°C
Umidità 29%
Pressione 1027 hPa

METAR: FAEO 160847Z AUTO 08011KT //// // ////// 23/04 Q1027

Ora: 22:21 (20:21 UTC)


TAF: mancante

Osservazioni e previsioni meteorologiche di più di 4000 aeroporti (messaggi METAR e TAF).

Le stazioni disponibili sono rappresentate dai dischi gialli e rossi sulla carta.

Puntare il mouse per vedere il nome della stazione.

Clicca sopra per visualizzare le osservazioni e previsioni meteorologiche.

Per cambiare la mappa : fare clic sui pulsanti verdi con una croce nera per ingrandire, il pulsante verde con un trattino per diminuire, o sulla freccia verde per le mappe adiacenti.


METAR-TAF: